sensor_id;sensor_type;location;lat;lon;timestamp;pressure;altitude;pressure_sealevel;temperature;humidity
36138;BME280;67787;50.074;21.904;2023-10-08T07:26:43;99103.91;;;11.25;73.58
36138;BME280;67787;50.074;21.904;2023-10-08T07:56:05;99116.38;;;11.58;73.42
36138;BME280;67787;50.074;21.904;2023-10-08T08:36:43;99188.16;;;11.82;71.82
36138;BME280;67787;50.074;21.904;2023-10-08T08:39:28;99191.11;;;11.78;70.28
36138;BME280;67787;50.074;21.904;2023-10-08T08:43:27;99199.08;;;11.73;71.04
36138;BME280;67787;50.074;21.904;2023-10-08T08:46:46;99204.55;;;11.76;71.04
36138;BME280;67787;50.074;21.904;2023-10-08T08:50:13;99209.52;;;11.76;71.13
36138;BME280;67787;50.074;21.904;2023-10-08T08:57:24;99210.16;;;11.63;71.10
36138;BME280;67787;50.074;21.904;2023-10-08T09:00:41;99221.33;;;11.61;70.47
36138;BME280;67787;50.074;21.904;2023-10-08T09:30:38;99229.39;;;11.91;68.98
36138;BME280;67787;50.074;21.904;2023-10-08T10:31:20;99269.42;;;12.66;64.18
36138;BME280;67787;50.074;21.904;2023-10-08T10:38:38;99255.45;;;12.62;63.90
36138;BME280;67787;50.074;21.904;2023-10-08T15:05:38;99491.48;;;10.50;47.01
36138;BME280;67787;50.074;21.904;2023-10-08T16:14:54;99633.75;;;9.18;49.62
36138;BME280;67787;50.074;21.904;2023-10-08T16:17:21;99636.56;;;9.13;49.79
36138;BME280;67787;50.074;21.904;2023-10-08T16:20:00;99643.32;;;9.09;49.81
36138;BME280;67787;50.074;21.904;2023-10-08T16:22:44;99648.09;;;9.03;49.75
36138;BME280;67787;50.074;21.904;2023-10-08T16:25:18;99652.77;;;8.95;49.94
36138;BME280;67787;50.074;21.904;2023-10-08T16:28:05;99655.16;;;8.90;49.90
36138;BME280;67787;50.074;21.904;2023-10-08T16:30:39;99661.37;;;8.83;49.94
36138;BME280;67787;50.074;21.904;2023-10-08T16:33:10;99664.84;;;8.78;50.02
36138;BME280;67787;50.074;21.904;2023-10-08T16:35:38;99661.38;;;8.74;50.01
36138;BME280;67787;50.074;21.904;2023-10-08T16:38:08;99665.40;;;8.72;50.26
36138;BME280;67787;50.074;21.904;2023-10-08T16:40:34;99666.31;;;8.68;50.21
36138;BME280;67787;50.074;21.904;2023-10-08T16:43:01;99669.81;;;8.65;50.30
36138;BME280;67787;50.074;21.904;2023-10-08T16:45:28;99672.48;;;8.61;50.25
36138;BME280;67787;50.074;21.904;2023-10-08T16:47:55;99676.26;;;8.57;50.37
36138;BME280;67787;50.074;21.904;2023-10-08T16:50:26;99677.79;;;8.52;50.41
36138;BME280;67787;50.074;21.904;2023-10-08T16:52:53;99681.19;;;8.47;50.44
36138;BME280;67787;50.074;21.904;2023-10-08T16:55:22;99690.06;;;8.43;50.44
36138;BME280;67787;50.074;21.904;2023-10-08T16:57:51;99694.98;;;8.37;50.56
36138;BME280;67787;50.074;21.904;2023-10-08T17:00:34;99703.91;;;8.32;50.56
36138;BME280;67787;50.074;21.904;2023-10-08T17:03:01;99713.67;;;8.28;50.74
36138;BME280;67787;50.074;21.904;2023-10-08T17:05:29;99713.73;;;8.23;50.56
36138;BME280;67787;50.074;21.904;2023-10-08T17:07:56;99715.07;;;8.21;50.47
36138;BME280;67787;50.074;21.904;2023-10-08T17:10:24;99717.27;;;8.19;50.59
36138;BME280;67787;50.074;21.904;2023-10-08T17:12:57;99714.55;;;8.17;50.67
36138;BME280;67787;50.074;21.904;2023-10-08T17:15:27;99713.77;;;8.15;50.67
36138;BME280;67787;50.074;21.904;2023-10-08T17:17:56;99717.40;;;8.14;50.75
36138;BME280;67787;50.074;21.904;2023-10-08T17:20:26;99724.73;;;8.12;50.69
36138;BME280;67787;50.074;21.904;2023-10-08T17:22:55;99724.91;;;8.09;50.71
36138;BME280;67787;50.074;21.904;2023-10-08T17:25:23;99727.41;;;8.08;50.74
36138;BME280;67787;50.074;21.904;2023-10-08T17:27:51;99726.82;;;8.06;50.95
36138;BME280;67787;50.074;21.904;2023-10-08T17:30:18;99731.07;;;8.02;50.80
36138;BME280;67787;50.074;21.904;2023-10-08T17:32:53;99732.80;;;7.99;50.89
36138;BME280;67787;50.074;21.904;2023-10-08T17:35:20;99732.56;;;7.97;50.88
36138;BME280;67787;50.074;21.904;2023-10-08T17:37:47;99731.56;;;7.96;50.74
36138;BME280;67787;50.074;21.904;2023-10-08T17:40:14;99732.27;;;7.96;50.95
36138;BME280;67787;50.074;21.904;2023-10-08T17:43:01;99731.07;;;7.95;51.05
36138;BME280;67787;50.074;21.904;2023-10-08T17:45:34;99733.26;;;7.94;50.95
36138;BME280;67787;50.074;21.904;2023-10-08T17:48:02;99734.87;;;7.94;51.03
36138;BME280;67787;50.074;21.904;2023-10-08T17:50:36;99741.03;;;7.90;51.01
36138;BME280;67787;50.074;21.904;2023-10-08T17:53:04;99740.46;;;7.87;51.22
36138;BME280;67787;50.074;21.904;2023-10-08T17:55:32;99738.65;;;7.85;51.15
36138;BME280;67787;50.074;21.904;2023-10-08T17:58:00;99744.95;;;7.82;51.12
36138;BME280;67787;50.074;21.904;2023-10-08T18:00:29;99748.20;;;7.77;51.24
36138;BME280;67787;50.074;21.904;2023-10-08T18:03:14;99751.61;;;7.73;51.33
36138;BME280;67787;50.074;21.904;2023-10-08T18:05:42;99756.53;;;7.69;51.36
36138;BME280;67787;50.074;21.904;2023-10-08T18:08:14;99757.87;;;7.67;51.15
36138;BME280;67787;50.074;21.904;2023-10-08T18:10:41;99764.88;;;7.65;51.18
36138;BME280;67787;50.074;21.904;2023-10-08T18:13:08;99767.77;;;7.64;51.45
36138;BME280;67787;50.074;21.904;2023-10-08T18:15:36;99769.64;;;7.61;51.28
36138;BME280;67787;50.074;21.904;2023-10-08T18:18:04;99773.98;;;7.59;51.55
36138;BME280;67787;50.074;21.904;2023-10-08T18:20:36;99779.92;;;7.57;51.60
36138;BME280;67787;50.074;21.904;2023-10-08T18:23:09;99784.45;;;7.54;51.39
36138;BME280;67787;50.074;21.904;2023-10-08T18:25:45;99788.61;;;7.53;51.58
36138;BME280;67787;50.074;21.904;2023-10-08T18:28:12;99788.36;;;7.51;51.46
36138;BME280;67787;50.074;21.904;2023-10-08T18:30:44;99791.62;;;7.49;51.74
36138;BME280;67787;50.074;21.904;2023-10-08T18:33:11;99798.02;;;7.47;51.60
36138;BME280;67787;50.074;21.904;2023-10-08T18:35:39;99798.30;;;7.45;51.67
36138;BME280;67787;50.074;21.904;2023-10-08T18:38:06;99796.23;;;7.44;51.67
36138;BME280;67787;50.074;21.904;2023-10-08T18:40:39;99794.74;;;7.42;51.87
36138;BME280;67787;50.074;21.904;2023-10-08T18:43:06;99794.85;;;7.40;51.58
36138;BME280;67787;50.074;21.904;2023-10-08T18:45:35;99794.09;;;7.41;51.83
36138;BME280;67787;50.074;21.904;2023-10-08T18:48:02;99799.90;;;7.41;51.70
36138;BME280;67787;50.074;21.904;2023-10-08T18:50:29;99806.55;;;7.42;51.74
36138;BME280;67787;50.074;21.904;2023-10-08T18:52:56;99800.98;;;7.41;52.04
36138;BME280;67787;50.074;21.904;2023-10-08T18:55:23;99804.30;;;7.38;51.96
36138;BME280;67787;50.074;21.904;2023-10-08T18:58:10;99807.21;;;7.36;51.86
36138;BME280;67787;50.074;21.904;2023-10-08T19:00:37;99806.16;;;7.36;52.06
36138;BME280;67787;50.074;21.904;2023-10-08T19:03:07;99820.07;;;7.37;51.97
36138;BME280;67787;50.074;21.904;2023-10-08T19:05:36;99820.45;;;7.36;51.93
36138;BME280;67787;50.074;21.904;2023-10-08T19:08:03;99823.47;;;7.36;52.03
36138;BME280;67787;50.074;21.904;2023-10-08T19:10:30;99820.01;;;7.34;52.04
36138;BME280;67787;50.074;21.904;2023-10-08T19:12:58;99817.45;;;7.32;52.06
36138;BME280;67787;50.074;21.904;2023-10-08T19:15:24;99820.36;;;7.30;52.19
36138;BME280;67787;50.074;21.904;2023-10-08T19:17:57;99824.16;;;7.28;52.18
36138;BME280;67787;50.074;21.904;2023-10-08T19:20:37;99831.02;;;7.25;52.09
36138;BME280;67787;50.074;21.904;2023-10-08T19:23:04;99833.51;;;7.25;52.30
36138;BME280;67787;50.074;21.904;2023-10-08T19:25:38;99836.37;;;7.24;52.32
36138;BME280;67787;50.074;21.904;2023-10-08T19:28:06;99836.81;;;7.22;52.18
36138;BME280;67787;50.074;21.904;2023-10-08T19:30:34;99843.77;;;7.20;52.32
36138;BME280;67787;50.074;21.904;2023-10-08T19:33:06;99846.38;;;7.17;52.26
36138;BME280;67787;50.074;21.904;2023-10-08T19:35:36;99852.81;;;7.15;52.59
36138;BME280;67787;50.074;21.904;2023-10-08T19:38:05;99857.09;;;7.10;52.41
36138;BME280;67787;50.074;21.904;2023-10-08T19:40:37;99863.23;;;7.07;52.79
36138;BME280;67787;50.074;21.904;2023-10-08T19:43:04;99865.20;;;7.02;52.62
36138;BME280;67787;50.074;21.904;2023-10-08T19:45:35;99863.91;;;7.00;52.76
36138;BME280;67787;50.074;21.904;2023-10-08T19:48:05;99862.11;;;6.97;52.99
36138;BME280;67787;50.074;21.904;2023-10-08T19:50:38;99857.14;;;6.93;52.98
36138;BME280;67787;50.074;21.904;2023-10-08T19:53:14;99861.48;;;6.91;53.09
36138;BME280;67787;50.074;21.904;2023-10-08T19:55:48;99866.17;;;6.89;53.59
36138;BME280;67787;50.074;21.904;2023-10-08T19:58:20;99872.55;;;6.88;53.23
36138;BME280;67787;50.074;21.904;2023-10-08T20:00:49;99872.05;;;6.87;53.34
36138;BME280;67787;50.074;21.904;2023-10-08T20:03:16;99874.77;;;6.85;53.56
36138;BME280;67787;50.074;21.904;2023-10-08T20:05:46;99871.77;;;6.85;53.36
36138;BME280;67787;50.074;21.904;2023-10-08T20:08:16;99870.54;;;6.86;53.41
36138;BME280;67787;50.074;21.904;2023-10-08T20:10:47;99874.40;;;6.86;53.51
36138;BME280;67787;50.074;21.904;2023-10-08T20:13:15;99873.24;;;6.84;53.53
36138;BME280;67787;50.074;21.904;2023-10-08T20:15:44;99873.98;;;6.83;53.86
36138;BME280;67787;50.074;21.904;2023-10-08T20:18:12;99877.09;;;6.81;53.77
36138;BME280;67787;50.074;21.904;2023-10-08T20:20:42;99877.67;;;6.80;53.85
36138;BME280;67787;50.074;21.904;2023-10-08T20:23:10;99878.52;;;6.77;53.91
36138;BME280;67787;50.074;21.904;2023-10-08T20:25:38;99880.71;;;6.75;53.95
36138;BME280;67787;50.074;21.904;2023-10-08T20:28:08;99882.85;;;6.74;53.75
36138;BME280;67787;50.074;21.904;2023-10-08T20:30:42;99883.45;;;6.72;53.93
36138;BME280;67787;50.074;21.904;2023-10-08T20:33:11;99884.10;;;6.70;53.92
36138;BME280;67787;50.074;21.904;2023-10-08T20:35:41;99883.90;;;6.70;53.99
36138;BME280;67787;50.074;21.904;2023-10-08T20:38:13;99887.24;;;6.70;53.90
36138;BME280;67787;50.074;21.904;2023-10-08T20:40:44;99889.36;;;6.70;53.88
36138;BME280;67787;50.074;21.904;2023-10-08T20:43:29;99893.16;;;6.68;54.20
36138;BME280;67787;50.074;21.904;2023-10-08T20:45:59;99896.52;;;6.68;54.25
36138;BME280;67787;50.074;21.904;2023-10-08T20:48:31;99897.54;;;6.68;54.13
36138;BME280;67787;50.074;21.904;2023-10-08T20:50:58;99895.73;;;6.70;54.06
36138;BME280;67787;50.074;21.904;2023-10-08T20:53:28;99892.17;;;6.71;54.01
36138;BME280;67787;50.074;21.904;2023-10-08T20:55:54;99891.42;;;6.72;54.08
36138;BME280;67787;50.074;21.904;2023-10-08T20:58:23;99891.20;;;6.73;54.05
36138;BME280;67787;50.074;21.904;2023-10-08T21:01:11;99892.05;;;6.74;54.07
36138;BME280;67787;50.074;21.904;2023-10-08T21:03:43;99893.98;;;6.73;54.22
36138;BME280;67787;50.074;21.904;2023-10-08T21:06:18;99893.95;;;6.74;54.15
36138;BME280;67787;50.074;21.904;2023-10-08T21:08:46;99892.57;;;6.73;54.24
36138;BME280;67787;50.074;21.904;2023-10-08T21:11:13;99896.56;;;6.71;54.24
36138;BME280;67787;50.074;21.904;2023-10-08T21:13:43;99901.92;;;6.69;54.36
36138;BME280;67787;50.074;21.904;2023-10-08T21:16:13;99903.95;;;6.67;54.25
36138;BME280;67787;50.074;21.904;2023-10-08T21:18:40;99907.89;;;6.66;54.41
36138;BME280;67787;50.074;21.904;2023-10-08T21:21:20;99911.61;;;6.66;54.40
36138;BME280;67787;50.074;21.904;2023-10-08T21:23:53;99913.48;;;6.62;54.48
36138;BME280;67787;50.074;21.904;2023-10-08T21:27:04;99917.29;;;6.60;54.48
36138;BME280;67787;50.074;21.904;2023-10-08T21:29:34;99918.09;;;6.58;54.73
36138;BME280;67787;50.074;21.904;2023-10-08T21:32:03;99920.41;;;6.57;54.65
36138;BME280;67787;50.074;21.904;2023-10-08T21:34:34;99925.80;;;6.55;54.60
36138;BME280;67787;50.074;21.904;2023-10-08T21:37:01;99928.74;;;6.52;54.88
36138;BME280;67787;50.074;21.904;2023-10-08T21:39:31;99929.27;;;6.48;54.63
36138;BME280;67787;50.074;21.904;2023-10-08T21:42:05;99931.63;;;6.46;54.85
36138;BME280;67787;50.074;21.904;2023-10-08T21:44:34;99928.41;;;6.43;54.86
36138;BME280;67787;50.074;21.904;2023-10-08T21:47:01;99925.54;;;6.39;54.73
36138;BME280;67787;50.074;21.904;2023-10-08T21:49:34;99932.27;;;6.39;55.03
36138;BME280;67787;50.074;21.904;2023-10-08T21:52:00;99932.30;;;6.38;55.00
36138;BME280;67787;50.074;21.904;2023-10-08T21:54:29;99929.63;;;6.35;55.13
36138;BME280;67787;50.074;21.904;2023-10-08T21:56:56;99927.89;;;6.34;54.87
36138;BME280;67787;50.074;21.904;2023-10-08T21:59:23;99931.89;;;6.31;55.40
36138;BME280;67787;50.074;21.904;2023-10-08T22:01:49;99928.70;;;6.27;55.11
36138;BME280;67787;50.074;21.904;2023-10-08T22:04:16;99935.45;;;6.26;55.29
36138;BME280;67787;50.074;21.904;2023-10-08T22:06:47;99934.28;;;6.24;55.32
36138;BME280;67787;50.074;21.904;2023-10-08T22:09:16;99934.98;;;6.24;55.37
36138;BME280;67787;50.074;21.904;2023-10-08T22:11:43;99936.02;;;6.25;55.62
36138;BME280;67787;50.074;21.904;2023-10-08T22:14:10;99936.20;;;6.20;55.82
36138;BME280;67787;50.074;21.904;2023-10-08T22:16:45;99937.95;;;6.16;55.55
36138;BME280;67787;50.074;21.904;2023-10-08T22:19:12;99942.75;;;6.15;55.62
36138;BME280;67787;50.074;21.904;2023-10-08T22:21:40;99942.17;;;6.12;55.74
36138;BME280;67787;50.074;21.904;2023-10-08T22:24:14;99940.94;;;6.12;55.54
36138;BME280;67787;50.074;21.904;2023-10-08T22:26:45;99942.48;;;6.13;55.81
36138;BME280;67787;50.074;21.904;2023-10-08T22:29:11;99940.46;;;6.10;55.88
36138;BME280;67787;50.074;21.904;2023-10-08T22:31:39;99937.92;;;6.08;55.76
36138;BME280;67787;50.074;21.904;2023-10-08T22:34:10;99939.86;;;6.08;56.19
36138;BME280;67787;50.074;21.904;2023-10-08T22:36:46;99942.41;;;6.06;56.39
36138;BME280;67787;50.074;21.904;2023-10-08T22:39:34;99941.70;;;6.06;56.15
36138;BME280;67787;50.074;21.904;2023-10-08T22:42:01;99941.45;;;6.08;56.12
36138;BME280;67787;50.074;21.904;2023-10-08T22:44:36;99946.05;;;6.07;56.11
36138;BME280;67787;50.074;21.904;2023-10-08T22:47:03;99944.60;;;6.08;56.12
36138;BME280;67787;50.074;21.904;2023-10-08T22:49:33;99946.66;;;6.10;56.07
36138;BME280;67787;50.074;21.904;2023-10-08T22:52:02;99954.11;;;6.08;56.10
36138;BME280;67787;50.074;21.904;2023-10-08T22:54:36;99950.43;;;6.08;56.05
36138;BME280;67787;50.074;21.904;2023-10-08T22:57:03;99952.67;;;6.09;56.06
36138;BME280;67787;50.074;21.904;2023-10-08T22:59:31;99955.15;;;6.09;56.24
36138;BME280;67787;50.074;21.904;2023-10-08T23:02:08;99957.40;;;6.10;56.05
36138;BME280;67787;50.074;21.904;2023-10-08T23:04:42;99962.64;;;6.06;56.16
36138;BME280;67787;50.074;21.904;2023-10-08T23:07:14;99967.52;;;6.03;56.14
36138;BME280;67787;50.074;21.904;2023-10-08T23:09:44;99969.23;;;6.00;56.28
36138;BME280;67787;50.074;21.904;2023-10-08T23:12:11;99970.25;;;6.01;56.35
36138;BME280;67787;50.074;21.904;2023-10-08T23:14:39;99974.70;;;5.99;56.27
36138;BME280;67787;50.074;21.904;2023-10-08T23:17:06;99977.44;;;5.96;56.22
36138;BME280;67787;50.074;21.904;2023-10-08T23:19:33;99974.23;;;5.93;56.39
36138;BME280;67787;50.074;21.904;2023-10-08T23:22:00;99966.52;;;5.87;56.38
36138;BME280;67787;50.074;21.904;2023-10-08T23:24:28;99963.06;;;5.86;56.68
36138;BME280;67787;50.074;21.904;2023-10-08T23:26:59;99964.13;;;5.85;56.59
36138;BME280;67787;50.074;21.904;2023-10-08T23:29:28;99960.80;;;5.85;56.68
36138;BME280;67787;50.074;21.904;2023-10-08T23:31:56;99966.49;;;5.83;56.58
36138;BME280;67787;50.074;21.904;2023-10-08T23:34:27;99966.55;;;5.81;56.64
36138;BME280;67787;50.074;21.904;2023-10-08T23:36:54;99962.95;;;5.79;56.50
36138;BME280;67787;50.074;21.904;2023-10-08T23:39:44;99956.29;;;5.78;56.88
36138;BME280;67787;50.074;21.904;2023-10-08T23:42:12;99951.75;;;5.77;56.73
36138;BME280;67787;50.074;21.904;2023-10-08T23:44:57;99946.06;;;5.74;56.77
36138;BME280;67787;50.074;21.904;2023-10-08T23:47:26;99941.36;;;5.73;56.85
36138;BME280;67787;50.074;21.904;2023-10-08T23:49:59;99940.48;;;5.73;56.90
36138;BME280;67787;50.074;21.904;2023-10-08T23:52:40;99939.11;;;5.72;56.92
36138;BME280;67787;50.074;21.904;2023-10-08T23:55:07;99936.08;;;5.73;57.06
36138;BME280;67787;50.074;21.904;2023-10-08T23:57:53;99933.23;;;5.73;56.96
